首页
METAR-TAF:

METAR-TAF

机场 :

突尼斯-迦太基国际机场

突尼斯, 突尼斯

纬度: 36-50N, 经度: 010-14E, 海拔: 3米

当前天气观测

该预报发布于34分钟前的13:00 UTC
风速14节,风向,在西北北转东北之间变化
温度 33°C
湿度 17%
气压 1015 hPa
能见度10公里或以上
少量云层高于3000英尺

METAR: DTTA 161300Z 35014KT 310V030 9999 FEW030 33/05 Q1015

时间: 14:34 (13:34 UTC)

预报

该预报发布于2小时和34分钟前的11:00 UTC
预报有效从16日的 12点(UTC)到 17日的 12点(UTC)
风速10节,风向西北
能见度10公里或以上
少量云层高于3000英尺
短暂存在
从 16日的 15点(UTC)到 16日的 18点(UTC)
风速19节,风向

TAF: DTTA 161100Z 1612/1712 31010KT 9999 FEW030 TEMPO 1615/1618 35019KT

超过4000个机场的气象观测和天气预报(METAR&TAF报告)。

可查询的气象台以黄色和红色小点在地图上表示。

将鼠标移到小点上方,可查看气象台名称。

然后点击查看天气观测和预报。

如需切换地图:点击带黑十字的绿色按钮放大地图;点击带横线的绿色按钮缩小地图;或者点击绿色箭头查看邻近地区的地图。


METAR-TAF: